sensor_id;sensor_type;location;lat;lon;timestamp;P1;durP1;ratioP1;P2;durP2;ratioP2
42988;SDS011;28622;43.716;20.668;2022-07-23T00:01:35;1.65;;;1.00;;
42988;SDS011;28622;43.716;20.668;2022-07-23T00:04:01;0.90;;;0.57;;
42988;SDS011;28622;43.716;20.668;2022-07-23T00:06:27;2.55;;;0.98;;
42988;SDS011;28622;43.716;20.668;2022-07-23T00:08:53;2.50;;;1.08;;
42988;SDS011;28622;43.716;20.668;2022-07-23T00:11:19;1.38;;;0.75;;
42988;SDS011;28622;43.716;20.668;2022-07-23T00:13:44;1.42;;;0.98;;
42988;SDS011;28622;43.716;20.668;2022-07-23T00:16:10;4.07;;;1.52;;
42988;SDS011;28622;43.716;20.668;2022-07-23T00:18:36;5.18;;;1.20;;
42988;SDS011;28622;43.716;20.668;2022-07-23T00:21:02;7.07;;;1.50;;
42988;SDS011;28622;43.716;20.668;2022-07-23T00:23:28;1.65;;;0.73;;
42988;SDS011;28622;43.716;20.668;2022-07-23T00:25:55;2.33;;;1.27;;
42988;SDS011;28622;43.716;20.668;2022-07-23T00:28:24;0.80;;;0.80;;
42988;SDS011;28622;43.716;20.668;2022-07-23T00:30:50;4.53;;;1.05;;
42988;SDS011;28622;43.716;20.668;2022-07-23T00:33:16;1.45;;;0.82;;
42988;SDS011;28622;43.716;20.668;2022-07-23T00:35:42;2.30;;;1.10;;
42988;SDS011;28622;43.716;20.668;2022-07-23T00:38:08;1.05;;;0.68;;
42988;SDS011;28622;43.716;20.668;2022-07-23T00:40:36;1.88;;;0.95;;
42988;SDS011;28622;43.716;20.668;2022-07-23T00:43:02;2.80;;;0.82;;
42988;SDS011;28622;43.716;20.668;2022-07-23T00:45:28;1.50;;;0.77;;
42988;SDS011;28622;43.716;20.668;2022-07-23T00:47:54;1.50;;;0.95;;
42988;SDS011;28622;43.716;20.668;2022-07-23T00:50:20;1.42;;;0.75;;
42988;SDS011;28622;43.716;20.668;2022-07-23T00:52:46;1.45;;;1.00;;
42988;SDS011;28622;43.716;20.668;2022-07-23T00:55:12;1.00;;;0.77;;
42988;SDS011;28622;43.716;20.668;2022-07-23T00:57:38;1.77;;;0.85;;
42988;SDS011;28622;43.716;20.668;2022-07-23T01:00:06;0.95;;;0.75;;
42988;SDS011;28622;43.716;20.668;2022-07-23T01:02:36;1.15;;;0.90;;
42988;SDS011;28622;43.716;20.668;2022-07-23T01:05:02;0.80;;;0.65;;
42988;SDS011;28622;43.716;20.668;2022-07-23T01:07:30;1.98;;;1.10;;
42988;SDS011;28622;43.716;20.668;2022-07-23T01:09:56;1.15;;;0.70;;
42988;SDS011;28622;43.716;20.668;2022-07-23T01:12:23;0.98;;;0.75;;
42988;SDS011;28622;43.716;20.668;2022-07-23T01:14:55;2.72;;;1.10;;
42988;SDS011;28622;43.716;20.668;2022-07-23T01:17:22;1.80;;;0.93;;
42988;SDS011;28622;43.716;20.668;2022-07-23T01:19:48;1.10;;;0.82;;
42988;SDS011;28622;43.716;20.668;2022-07-23T01:22:14;1.30;;;0.98;;
42988;SDS011;28622;43.716;20.668;2022-07-23T01:24:42;1.55;;;0.77;;
42988;SDS011;28622;43.716;20.668;2022-07-23T01:27:08;1.88;;;0.73;;
42988;SDS011;28622;43.716;20.668;2022-07-23T01:29:34;1.75;;;0.98;;
42988;SDS011;28622;43.716;20.668;2022-07-23T01:32:00;1.58;;;1.00;;
42988;SDS011;28622;43.716;20.668;2022-07-23T01:34:25;2.03;;;0.93;;
42988;SDS011;28622;43.716;20.668;2022-07-23T01:36:51;2.67;;;0.82;;
42988;SDS011;28622;43.716;20.668;2022-07-23T01:39:17;0.50;;;0.50;;
42988;SDS011;28622;43.716;20.668;2022-07-23T01:41:43;1.00;;;0.90;;
42988;SDS011;28622;43.716;20.668;2022-07-23T01:44:08;2.47;;;1.00;;
42988;SDS011;28622;43.716;20.668;2022-07-23T01:46:34;2.25;;;1.00;;
42988;SDS011;28622;43.716;20.668;2022-07-23T01:49:00;1.15;;;0.85;;
42988;SDS011;28622;43.716;20.668;2022-07-23T01:51:26;3.00;;;0.90;;
42988;SDS011;28622;43.716;20.668;2022-07-23T01:53:51;0.90;;;0.65;;
42988;SDS011;28622;43.716;20.668;2022-07-23T01:56:17;1.15;;;0.80;;
42988;SDS011;28622;43.716;20.668;2022-07-23T01:58:45;4.60;;;0.80;;
42988;SDS011;28622;43.716;20.668;2022-07-23T02:01:12;2.85;;;0.90;;
42988;SDS011;28622;43.716;20.668;2022-07-23T02:03:38;1.23;;;1.10;;
42988;SDS011;28622;43.716;20.668;2022-07-23T02:06:04;1.65;;;0.95;;
42988;SDS011;28622;43.716;20.668;2022-07-23T02:08:29;2.20;;;0.93;;
42988;SDS011;28622;43.716;20.668;2022-07-23T02:10:55;1.33;;;1.00;;
42988;SDS011;28622;43.716;20.668;2022-07-23T02:13:21;1.65;;;1.10;;
42988;SDS011;28622;43.716;20.668;2022-07-23T02:15:47;3.35;;;1.15;;
42988;SDS011;28622;43.716;20.668;2022-07-23T02:18:13;1.92;;;0.93;;
42988;SDS011;28622;43.716;20.668;2022-07-23T02:20:39;1.10;;;0.80;;
42988;SDS011;28622;43.716;20.668;2022-07-23T02:23:05;4.25;;;1.92;;
42988;SDS011;28622;43.716;20.668;2022-07-23T02:25:31;2.03;;;0.70;;
42988;SDS011;28622;43.716;20.668;2022-07-23T02:27:57;1.80;;;1.10;;
42988;SDS011;28622;43.716;20.668;2022-07-23T02:30:23;2.42;;;0.90;;
42988;SDS011;28622;43.716;20.668;2022-07-23T02:32:49;2.67;;;1.20;;
42988;SDS011;28622;43.716;20.668;2022-07-23T02:35:15;2.40;;;1.02;;
42988;SDS011;28622;43.716;20.668;2022-07-23T02:37:41;1.17;;;1.08;;
42988;SDS011;28622;43.716;20.668;2022-07-23T02:40:06;3.97;;;1.40;;
42988;SDS011;28622;43.716;20.668;2022-07-23T02:42:33;1.33;;;0.90;;
42988;SDS011;28622;43.716;20.668;2022-07-23T02:44:58;2.65;;;1.00;;
42988;SDS011;28622;43.716;20.668;2022-07-23T02:47:24;1.13;;;1.00;;
42988;SDS011;28622;43.716;20.668;2022-07-23T02:49:50;1.25;;;0.90;;
42988;SDS011;28622;43.716;20.668;2022-07-23T02:52:16;2.00;;;1.25;;
42988;SDS011;28622;43.716;20.668;2022-07-23T02:54:41;1.98;;;1.13;;
42988;SDS011;28622;43.716;20.668;2022-07-23T02:57:07;3.40;;;1.30;;
42988;SDS011;28622;43.716;20.668;2022-07-23T02:59:33;3.22;;;0.98;;
42988;SDS011;28622;43.716;20.668;2022-07-23T03:01:58;1.27;;;1.00;;
42988;SDS011;28622;43.716;20.668;2022-07-23T03:04:24;1.60;;;0.73;;
42988;SDS011;28622;43.716;20.668;2022-07-23T03:06:50;1.88;;;1.10;;
42988;SDS011;28622;43.716;20.668;2022-07-23T03:09:15;2.05;;;1.05;;
42988;SDS011;28622;43.716;20.668;2022-07-23T03:11:41;2.72;;;1.20;;
42988;SDS011;28622;43.716;20.668;2022-07-23T03:14:07;1.95;;;1.17;;
42988;SDS011;28622;43.716;20.668;2022-07-23T03:16:33;2.97;;;1.20;;
42988;SDS011;28622;43.716;20.668;2022-07-23T03:18:58;1.73;;;1.30;;
42988;SDS011;28622;43.716;20.668;2022-07-23T03:21:24;2.53;;;1.10;;
42988;SDS011;28622;43.716;20.668;2022-07-23T03:23:50;2.35;;;1.33;;
42988;SDS011;28622;43.716;20.668;2022-07-23T03:26:16;2.67;;;1.08;;
42988;SDS011;28622;43.716;20.668;2022-07-23T03:28:42;1.42;;;1.00;;
42988;SDS011;28622;43.716;20.668;2022-07-23T03:31:07;1.70;;;1.00;;
42988;SDS011;28622;43.716;20.668;2022-07-23T03:33:33;2.83;;;1.20;;
42988;SDS011;28622;43.716;20.668;2022-07-23T03:35:59;2.05;;;0.98;;
42988;SDS011;28622;43.716;20.668;2022-07-23T03:38:25;1.95;;;1.02;;
42988;SDS011;28622;43.716;20.668;2022-07-23T03:40:51;12.27;;;1.70;;
42988;SDS011;28622;43.716;20.668;2022-07-23T03:43:17;5.78;;;0.88;;
42988;SDS011;28622;43.716;20.668;2022-07-23T03:45:42;4.40;;;1.70;;
42988;SDS011;28622;43.716;20.668;2022-07-23T03:48:08;1.73;;;1.08;;
42988;SDS011;28622;43.716;20.668;2022-07-23T03:50:34;2.67;;;1.48;;
42988;SDS011;28622;43.716;20.668;2022-07-23T03:52:59;1.83;;;0.88;;
42988;SDS011;28622;43.716;20.668;2022-07-23T03:55:25;5.22;;;1.52;;
42988;SDS011;28622;43.716;20.668;2022-07-23T03:57:51;2.53;;;0.95;;
42988;SDS011;28622;43.716;20.668;2022-07-23T04:00:17;5.28;;;1.25;;
42988;SDS011;28622;43.716;20.668;2022-07-23T04:02:43;4.30;;;1.20;;
42988;SDS011;28622;43.716;20.668;2022-07-23T04:05:08;2.33;;;1.48;;
42988;SDS011;28622;43.716;20.668;2022-07-23T04:07:34;5.15;;;1.83;;
42988;SDS011;28622;43.716;20.668;2022-07-23T04:10:00;1.50;;;1.02;;
42988;SDS011;28622;43.716;20.668;2022-07-23T04:12:26;4.10;;;1.42;;
42988;SDS011;28622;43.716;20.668;2022-07-23T04:14:51;3.33;;;1.80;;
42988;SDS011;28622;43.716;20.668;2022-07-23T04:17:17;4.05;;;1.23;;
42988;SDS011;28622;43.716;20.668;2022-07-23T04:19:43;4.65;;;1.58;;
42988;SDS011;28622;43.716;20.668;2022-07-23T04:22:09;5.03;;;1.85;;
42988;SDS011;28622;43.716;20.668;2022-07-23T04:24:36;5.45;;;2.83;;
42988;SDS011;28622;43.716;20.668;2022-07-23T04:27:02;2.80;;;1.98;;
42988;SDS011;28622;43.716;20.668;2022-07-23T04:29:28;7.63;;;2.70;;
42988;SDS011;28622;43.716;20.668;2022-07-23T04:31:54;5.05;;;2.33;;
42988;SDS011;28622;43.716;20.668;2022-07-23T04:34:20;8.35;;;2.80;;
42988;SDS011;28622;43.716;20.668;2022-07-23T04:36:47;11.40;;;1.65;;
42988;SDS011;28622;43.716;20.668;2022-07-23T04:39:12;3.53;;;1.80;;
42988;SDS011;28622;43.716;20.668;2022-07-23T04:41:38;6.45;;;1.75;;
42988;SDS011;28622;43.716;20.668;2022-07-23T04:44:04;2.55;;;1.30;;
42988;SDS011;28622;43.716;20.668;2022-07-23T04:46:30;3.28;;;2.05;;
42988;SDS011;28622;43.716;20.668;2022-07-23T04:48:56;5.05;;;2.53;;
42988;SDS011;28622;43.716;20.668;2022-07-23T04:51:22;7.60;;;2.53;;
42988;SDS011;28622;43.716;20.668;2022-07-23T04:53:48;4.32;;;2.58;;
42988;SDS011;28622;43.716;20.668;2022-07-23T04:56:14;11.65;;;2.85;;
42988;SDS011;28622;43.716;20.668;2022-07-23T04:58:40;4.25;;;2.40;;
42988;SDS011;28622;43.716;20.668;2022-07-23T05:01:06;4.07;;;2.72;;
42988;SDS011;28622;43.716;20.668;2022-07-23T05:03:32;4.25;;;2.65;;
42988;SDS011;28622;43.716;20.668;2022-07-23T05:05:57;4.75;;;2.78;;
42988;SDS011;28622;43.716;20.668;2022-07-23T05:08:23;3.75;;;2.20;;
42988;SDS011;28622;43.716;20.668;2022-07-23T05:10:49;4.10;;;2.75;;
42988;SDS011;28622;43.716;20.668;2022-07-23T05:13:15;10.40;;;3.97;;
42988;SDS011;28622;43.716;20.668;2022-07-23T05:15:41;3.92;;;2.38;;
42988;SDS011;28622;43.716;20.668;2022-07-23T05:18:07;3.40;;;1.85;;
42988;SDS011;28622;43.716;20.668;2022-07-23T05:20:33;2.80;;;1.73;;
42988;SDS011;28622;43.716;20.668;2022-07-23T05:22:59;5.57;;;1.65;;
42988;SDS011;28622;43.716;20.668;2022-07-23T05:25:24;4.30;;;1.70;;
42988;SDS011;28622;43.716;20.668;2022-07-23T05:27:50;4.45;;;1.58;;
42988;SDS011;28622;43.716;20.668;2022-07-23T05:30:16;4.50;;;1.75;;
42988;SDS011;28622;43.716;20.668;2022-07-23T05:32:42;3.70;;;1.42;;
42988;SDS011;28622;43.716;20.668;2022-07-23T05:35:08;5.25;;;1.73;;
42988;SDS011;28622;43.716;20.668;2022-07-23T05:37:34;4.10;;;1.90;;
42988;SDS011;28622;43.716;20.668;2022-07-23T05:40:03;3.20;;;1.30;;
42988;SDS011;28622;43.716;20.668;2022-07-23T05:42:32;2.08;;;1.40;;
42988;SDS011;28622;43.716;20.668;2022-07-23T05:50:28;3.97;;;1.42;;
42988;SDS011;28622;43.716;20.668;2022-07-23T05:52:54;2.25;;;1.13;;
42988;SDS011;28622;43.716;20.668;2022-07-23T05:55:20;1.90;;;1.13;;
42988;SDS011;28622;43.716;20.668;2022-07-23T05:57:45;3.17;;;1.55;;
42988;SDS011;28622;43.716;20.668;2022-07-23T06:00:11;1.90;;;1.15;;
42988;SDS011;28622;43.716;20.668;2022-07-23T06:02:38;2.65;;;1.30;;
42988;SDS011;28622;43.716;20.668;2022-07-23T06:05:04;2.25;;;1.23;;
42988;SDS011;28622;43.716;20.668;2022-07-23T06:07:32;4.28;;;1.33;;
42988;SDS011;28622;43.716;20.668;2022-07-23T06:09:59;2.67;;;1.42;;
42988;SDS011;28622;43.716;20.668;2022-07-23T06:12:24;2.10;;;1.30;;
42988;SDS011;28622;43.716;20.668;2022-07-23T06:14:50;3.92;;;1.58;;
42988;SDS011;28622;43.716;20.668;2022-07-23T06:17:17;2.22;;;1.95;;
42988;SDS011;28622;43.716;20.668;2022-07-23T06:19:43;4.10;;;1.30;;
42988;SDS011;28622;43.716;20.668;2022-07-23T06:22:09;3.85;;;1.30;;
42988;SDS011;28622;43.716;20.668;2022-07-23T06:24:35;3.33;;;1.17;;
42988;SDS011;28622;43.716;20.668;2022-07-23T06:27:01;2.00;;;1.45;;
42988;SDS011;28622;43.716;20.668;2022-07-23T06:29:27;2.78;;;1.35;;
42988;SDS011;28622;43.716;20.668;2022-07-23T06:31:52;2.53;;;1.30;;
42988;SDS011;28622;43.716;20.668;2022-07-23T06:34:18;1.88;;;1.17;;
42988;SDS011;28622;43.716;20.668;2022-07-23T06:36:44;1.85;;;1.40;;
42988;SDS011;28622;43.716;20.668;2022-07-23T06:39:10;3.40;;;1.27;;
42988;SDS011;28622;43.716;20.668;2022-07-23T06:41:36;6.15;;;1.70;;
42988;SDS011;28622;43.716;20.668;2022-07-23T06:44:02;1.80;;;0.90;;
42988;SDS011;28622;43.716;20.668;2022-07-23T06:46:28;2.70;;;1.15;;
42988;SDS011;28622;43.716;20.668;2022-07-23T06:48:53;1.77;;;1.20;;
42988;SDS011;28622;43.716;20.668;2022-07-23T06:51:19;2.63;;;1.38;;
42988;SDS011;28622;43.716;20.668;2022-07-23T06:53:45;1.60;;;1.17;;
42988;SDS011;28622;43.716;20.668;2022-07-23T06:56:11;3.03;;;1.30;;
42988;SDS011;28622;43.716;20.668;2022-07-23T06:58:36;5.43;;;1.17;;
42988;SDS011;28622;43.716;20.668;2022-07-23T07:01:02;3.17;;;1.33;;
42988;SDS011;28622;43.716;20.668;2022-07-23T07:03:28;2.40;;;1.48;;
42988;SDS011;28622;43.716;20.668;2022-07-23T07:05:54;7.55;;;1.33;;
42988;SDS011;28622;43.716;20.668;2022-07-23T07:08:19;3.97;;;1.00;;
42988;SDS011;28622;43.716;20.668;2022-07-23T07:10:45;3.03;;;1.05;;
42988;SDS011;28622;43.716;20.668;2022-07-23T07:13:12;1.77;;;1.10;;
42988;SDS011;28622;43.716;20.668;2022-07-23T07:15:38;2.85;;;0.93;;
42988;SDS011;28622;43.716;20.668;2022-07-23T07:18:03;2.47;;;1.17;;
42988;SDS011;28622;43.716;20.668;2022-07-23T07:20:29;2.63;;;1.38;;
42988;SDS011;28622;43.716;20.668;2022-07-23T07:22:55;3.55;;;1.23;;
42988;SDS011;28622;43.716;20.668;2022-07-23T07:25:21;3.85;;;1.30;;
42988;SDS011;28622;43.716;20.668;2022-07-23T07:27:47;6.75;;;1.10;;
42988;SDS011;28622;43.716;20.668;2022-07-23T07:30:12;2.65;;;1.23;;
42988;SDS011;28622;43.716;20.668;2022-07-23T07:32:38;3.03;;;1.05;;
42988;SDS011;28622;43.716;20.668;2022-07-23T07:35:05;2.55;;;1.10;;
42988;SDS011;28622;43.716;20.668;2022-07-23T07:37:32;5.55;;;1.25;;
42988;SDS011;28622;43.716;20.668;2022-07-23T07:39:57;4.60;;;1.27;;
42988;SDS011;28622;43.716;20.668;2022-07-23T07:42:23;2.80;;;1.20;;
42988;SDS011;28622;43.716;20.668;2022-07-23T07:44:49;2.38;;;1.02;;
42988;SDS011;28622;43.716;20.668;2022-07-23T07:47:15;2.00;;;1.10;;
42988;SDS011;28622;43.716;20.668;2022-07-23T07:49:41;2.38;;;0.93;;
42988;SDS011;28622;43.716;20.668;2022-07-23T07:52:07;2.97;;;1.25;;
42988;SDS011;28622;43.716;20.668;2022-07-23T07:54:34;3.15;;;1.10;;
42988;SDS011;28622;43.716;20.668;2022-07-23T07:57:00;4.78;;;1.25;;
42988;SDS011;28622;43.716;20.668;2022-07-23T07:59:25;2.40;;;1.10;;
42988;SDS011;28622;43.716;20.668;2022-07-23T08:01:51;1.52;;;0.98;;
42988;SDS011;28622;43.716;20.668;2022-07-23T08:04:17;1.85;;;1.27;;
42988;SDS011;28622;43.716;20.668;2022-07-23T08:06:43;3.13;;;1.25;;
42988;SDS011;28622;43.716;20.668;2022-07-23T08:09:09;1.95;;;0.70;;
42988;SDS011;28622;43.716;20.668;2022-07-23T08:11:35;1.90;;;0.93;;
42988;SDS011;28622;43.716;20.668;2022-07-23T08:14:01;1.65;;;1.00;;
42988;SDS011;28622;43.716;20.668;2022-07-23T08:16:27;3.35;;;1.05;;
42988;SDS011;28622;43.716;20.668;2022-07-23T08:18:52;8.48;;;1.23;;
42988;SDS011;28622;43.716;20.668;2022-07-23T08:21:18;2.28;;;1.20;;
42988;SDS011;28622;43.716;20.668;2022-07-23T08:23:44;1.98;;;1.25;;
42988;SDS011;28622;43.716;20.668;2022-07-23T08:26:10;1.67;;;1.00;;
42988;SDS011;28622;43.716;20.668;2022-07-23T08:28:36;1.30;;;0.95;;
42988;SDS011;28622;43.716;20.668;2022-07-23T08:31:02;1.02;;;0.85;;
42988;SDS011;28622;43.716;20.668;2022-07-23T08:33:30;1.35;;;1.02;;
42988;SDS011;28622;43.716;20.668;2022-07-23T08:35:56;1.15;;;1.00;;
42988;SDS011;28622;43.716;20.668;2022-07-23T08:38:22;1.48;;;0.88;;
42988;SDS011;28622;43.716;20.668;2022-07-23T08:40:51;3.08;;;1.17;;
42988;SDS011;28622;43.716;20.668;2022-07-23T08:43:22;1.80;;;0.75;;
42988;SDS011;28622;43.716;20.668;2022-07-23T08:45:50;4.13;;;1.05;;
42988;SDS011;28622;43.716;20.668;2022-07-23T08:48:19;4.35;;;1.00;;
42988;SDS011;28622;43.716;20.668;2022-07-23T08:50:51;2.40;;;1.08;;
42988;SDS011;28622;43.716;20.668;2022-07-23T08:53:20;6.60;;;1.15;;
42988;SDS011;28622;43.716;20.668;2022-07-23T08:55:49;1.55;;;0.98;;
42988;SDS011;28622;43.716;20.668;2022-07-23T08:58:17;4.60;;;1.42;;
42988;SDS011;28622;43.716;20.668;2022-07-23T09:00:43;1.10;;;0.90;;
42988;SDS011;28622;43.716;20.668;2022-07-23T09:03:29;1.23;;;0.80;;
42988;SDS011;28622;43.716;20.668;2022-07-23T09:06:00;2.10;;;1.35;;
42988;SDS011;28622;43.716;20.668;2022-07-23T09:08:37;5.60;;;1.77;;
42988;SDS011;28622;43.716;20.668;2022-07-23T09:11:05;10.75;;;2.88;;
42988;SDS011;28622;43.716;20.668;2022-07-23T09:13:47;2.83;;;1.40;;
42988;SDS011;28622;43.716;20.668;2022-07-23T09:16:26;1.52;;;1.00;;
42988;SDS011;28622;43.716;20.668;2022-07-23T09:21:25;1.42;;;0.85;;
42988;SDS011;28622;43.716;20.668;2022-07-23T09:24:11;3.00;;;1.10;;
42988;SDS011;28622;43.716;20.668;2022-07-23T09:26:45;1.92;;;0.68;;
42988;SDS011;28622;43.716;20.668;2022-07-23T09:31:51;3.28;;;0.75;;
42988;SDS011;28622;43.716;20.668;2022-07-23T09:34:23;7.53;;;1.70;;
42988;SDS011;28622;43.716;20.668;2022-07-23T09:37:35;8.73;;;2.72;;
42988;SDS011;28622;43.716;20.668;2022-07-23T09:39:38;8.75;;;2.25;;
42988;SDS011;28622;43.716;20.668;2022-07-23T09:42:14;6.65;;;2.33;;
42988;SDS011;28622;43.716;20.668;2022-07-23T09:44:44;2.67;;;0.90;;
42988;SDS011;28622;43.716;20.668;2022-07-23T09:47:12;3.53;;;0.77;;
42988;SDS011;28622;43.716;20.668;2022-07-23T09:49:38;1.63;;;0.77;;
42988;SDS011;28622;43.716;20.668;2022-07-23T09:52:06;19.00;;;3.70;;
42988;SDS011;28622;43.716;20.668;2022-07-23T09:54:35;8.70;;;1.38;;
42988;SDS011;28622;43.716;20.668;2022-07-23T09:57:06;6.30;;;1.77;;
42988;SDS011;28622;43.716;20.668;2022-07-23T09:59:41;2.95;;;1.02;;
42988;SDS011;28622;43.716;20.668;2022-07-23T10:02:09;1.27;;;0.90;;
42988;SDS011;28622;43.716;20.668;2022-07-23T10:04:37;1.52;;;0.75;;
42988;SDS011;28622;43.716;20.668;2022-07-23T10:07:05;1.00;;;0.65;;
42988;SDS011;28622;43.716;20.668;2022-07-23T10:09:34;2.13;;;0.95;;
42988;SDS011;28622;43.716;20.668;2022-07-23T10:12:05;1.75;;;0.93;;
42988;SDS011;28622;43.716;20.668;2022-07-23T10:14:54;2.05;;;1.30;;
42988;SDS011;28622;43.716;20.668;2022-07-23T10:17:25;1.02;;;0.60;;
42988;SDS011;28622;43.716;20.668;2022-07-23T10:19:53;2.33;;;0.70;;
42988;SDS011;28622;43.716;20.668;2022-07-23T10:22:21;1.70;;;0.82;;
42988;SDS011;28622;43.716;20.668;2022-07-23T10:24:58;1.10;;;0.60;;
42988;SDS011;28622;43.716;20.668;2022-07-23T10:41:50;1.03;;;0.73;;
42988;SDS011;28622;43.716;20.668;2022-07-23T10:44:18;2.17;;;0.77;;
42988;SDS011;28622;43.716;20.668;2022-07-23T10:46:53;1.60;;;0.70;;
42988;SDS011;28622;43.716;20.668;2022-07-23T10:49:38;2.05;;;1.00;;
42988;SDS011;28622;43.716;20.668;2022-07-23T10:54:39;1.35;;;0.50;;
42988;SDS011;28622;43.716;20.668;2022-07-23T10:57:06;0.60;;;0.52;;
42988;SDS011;28622;43.716;20.668;2022-07-23T11:02:45;1.35;;;0.68;;
42988;SDS011;28622;43.716;20.668;2022-07-23T11:05:13;2.22;;;0.95;;
42988;SDS011;28622;43.716;20.668;2022-07-23T11:10:39;0.82;;;0.80;;
42988;SDS011;28622;43.716;20.668;2022-07-23T11:31:54;1.55;;;0.88;;
42988;SDS011;28622;43.716;20.668;2022-07-23T11:34:27;1.63;;;0.80;;
42988;SDS011;28622;43.716;20.668;2022-07-23T11:36:53;1.95;;;0.98;;
42988;SDS011;28622;43.716;20.668;2022-07-23T11:39:20;0.50;;;0.50;;
42988;SDS011;28622;43.716;20.668;2022-07-23T11:41:49;2.03;;;0.93;;
42988;SDS011;28622;43.716;20.668;2022-07-23T11:46:58;1.45;;;1.05;;
42988;SDS011;28622;43.716;20.668;2022-07-23T11:49:25;1.55;;;0.63;;
42988;SDS011;28622;43.716;20.668;2022-07-23T11:54:46;1.63;;;0.75;;
42988;SDS011;28622;43.716;20.668;2022-07-23T11:57:14;1.13;;;0.80;;
42988;SDS011;28622;43.716;20.668;2022-07-23T11:59:40;2.15;;;1.00;;
42988;SDS011;28622;43.716;20.668;2022-07-23T12:02:09;1.33;;;1.00;;
42988;SDS011;28622;43.716;20.668;2022-07-23T12:04:38;1.90;;;0.75;;
42988;SDS011;28622;43.716;20.668;2022-07-23T12:07:25;1.73;;;1.38;;
42988;SDS011;28622;43.716;20.668;2022-07-23T12:09:52;1.42;;;0.98;;
42988;SDS011;28622;43.716;20.668;2022-07-23T12:12:19;3.00;;;1.70;;
42988;SDS011;28622;43.716;20.668;2022-07-23T12:14:51;7.05;;;0.80;;
42988;SDS011;28622;43.716;20.668;2022-07-23T12:17:21;1.52;;;1.00;;
42988;SDS011;28622;43.716;20.668;2022-07-23T12:19:53;1.42;;;1.00;;
42988;SDS011;28622;43.716;20.668;2022-07-23T12:22:20;1.30;;;1.00;;
42988;SDS011;28622;43.716;20.668;2022-07-23T12:24:58;5.82;;;1.10;;
42988;SDS011;28622;43.716;20.668;2022-07-23T12:27:25;5.22;;;1.05;;
42988;SDS011;28622;43.716;20.668;2022-07-23T12:29:52;1.55;;;0.95;;
42988;SDS011;28622;43.716;20.668;2022-07-23T12:32:23;1.10;;;1.00;;
42988;SDS011;28622;43.716;20.668;2022-07-23T12:35:14;1.67;;;0.90;;
42988;SDS011;28622;43.716;20.668;2022-07-23T12:37:41;2.53;;;1.20;;
42988;SDS011;28622;43.716;20.668;2022-07-23T12:40:24;1.25;;;0.88;;
42988;SDS011;28622;43.716;20.668;2022-07-23T12:42:51;1.10;;;0.90;;
42988;SDS011;28622;43.716;20.668;2022-07-23T12:45:20;1.42;;;1.27;;
42988;SDS011;28622;43.716;20.668;2022-07-23T12:47:52;3.60;;;1.42;;
42988;SDS011;28622;43.716;20.668;2022-07-23T12:53:14;1.95;;;1.10;;
42988;SDS011;28622;43.716;20.668;2022-07-23T12:55:41;2.65;;;1.40;;
42988;SDS011;28622;43.716;20.668;2022-07-23T13:00:50;2.30;;;1.33;;
42988;SDS011;28622;43.716;20.668;2022-07-23T13:03:35;2.25;;;1.50;;
42988;SDS011;28622;43.716;20.668;2022-07-23T13:06:04;2.85;;;1.70;;
42988;SDS011;28622;43.716;20.668;2022-07-23T13:08:32;2.03;;;1.30;;
42988;SDS011;28622;43.716;20.668;2022-07-23T13:10:59;1.75;;;1.13;;
42988;SDS011;28622;43.716;20.668;2022-07-23T13:13:27;1.73;;;1.13;;
42988;SDS011;28622;43.716;20.668;2022-07-23T13:15:56;1.08;;;0.98;;
42988;SDS011;28622;43.716;20.668;2022-07-23T13:18:23;2.05;;;1.48;;
42988;SDS011;28622;43.716;20.668;2022-07-23T13:20:50;2.88;;;1.35;;
42988;SDS011;28622;43.716;20.668;2022-07-23T13:23:16;2.92;;;1.00;;
42988;SDS011;28622;43.716;20.668;2022-07-23T13:25:43;1.45;;;1.00;;
42988;SDS011;28622;43.716;20.668;2022-07-23T13:28:09;2.25;;;1.27;;
42988;SDS011;28622;43.716;20.668;2022-07-23T13:30:35;1.45;;;0.93;;
42988;SDS011;28622;43.716;20.668;2022-07-23T13:33:02;1.33;;;1.02;;
42988;SDS011;28622;43.716;20.668;2022-07-23T13:35:28;2.75;;;1.30;;
42988;SDS011;28622;43.716;20.668;2022-07-23T13:37:54;1.58;;;1.13;;
42988;SDS011;28622;43.716;20.668;2022-07-23T13:40:20;1.67;;;1.20;;
42988;SDS011;28622;43.716;20.668;2022-07-23T13:42:47;1.65;;;1.40;;
42988;SDS011;28622;43.716;20.668;2022-07-23T13:45:13;2.00;;;1.38;;
42988;SDS011;28622;43.716;20.668;2022-07-23T13:47:39;2.88;;;1.35;;
42988;SDS011;28622;43.716;20.668;2022-07-23T13:50:05;3.83;;;1.35;;
42988;SDS011;28622;43.716;20.668;2022-07-23T13:52:31;5.00;;;1.50;;
42988;SDS011;28622;43.716;20.668;2022-07-23T13:54:58;2.05;;;1.00;;
42988;SDS011;28622;43.716;20.668;2022-07-23T13:57:29;1.93;;;1.47;;
42988;SDS011;28622;43.716;20.668;2022-07-23T13:59:55;2.40;;;1.00;;
42988;SDS011;28622;43.716;20.668;2022-07-23T14:02:21;1.80;;;1.10;;
42988;SDS011;28622;43.716;20.668;2022-07-23T14:04:47;2.33;;;1.23;;
42988;SDS011;28622;43.716;20.668;2022-07-23T14:07:14;2.13;;;1.40;;
42988;SDS011;28622;43.716;20.668;2022-07-23T14:09:40;2.03;;;1.40;;
42988;SDS011;28622;43.716;20.668;2022-07-23T14:12:06;3.17;;;1.10;;
42988;SDS011;28622;43.716;20.668;2022-07-23T14:14:33;2.15;;;1.20;;
42988;SDS011;28622;43.716;20.668;2022-07-23T14:16:59;2.08;;;1.02;;
42988;SDS011;28622;43.716;20.668;2022-07-23T14:19:25;1.65;;;0.90;;
42988;SDS011;28622;43.716;20.668;2022-07-23T14:21:51;1.63;;;1.30;;
42988;SDS011;28622;43.716;20.668;2022-07-23T14:24:17;1.70;;;1.10;;
42988;SDS011;28622;43.716;20.668;2022-07-23T14:26:42;2.05;;;1.33;;
42988;SDS011;28622;43.716;20.668;2022-07-23T14:29:08;1.60;;;1.10;;
42988;SDS011;28622;43.716;20.668;2022-07-23T14:31:34;1.17;;;0.93;;
42988;SDS011;28622;43.716;20.668;2022-07-23T14:34:00;1.60;;;1.10;;
42988;SDS011;28622;43.716;20.668;2022-07-23T14:36:26;3.00;;;1.17;;
42988;SDS011;28622;43.716;20.668;2022-07-23T14:38:52;2.75;;;1.17;;
42988;SDS011;28622;43.716;20.668;2022-07-23T14:41:18;1.20;;;1.10;;
42988;SDS011;28622;43.716;20.668;2022-07-23T14:43:44;2.08;;;1.20;;
42988;SDS011;28622;43.716;20.668;2022-07-23T14:46:10;2.92;;;1.38;;
42988;SDS011;28622;43.716;20.668;2022-07-23T14:48:37;3.15;;;1.13;;
42988;SDS011;28622;43.716;20.668;2022-07-23T14:51:03;1.65;;;1.20;;
42988;SDS011;28622;43.716;20.668;2022-07-23T14:53:29;4.05;;;1.35;;
42988;SDS011;28622;43.716;20.668;2022-07-23T14:55:57;1.52;;;1.15;;
42988;SDS011;28622;43.716;20.668;2022-07-23T14:58:23;1.75;;;1.23;;
42988;SDS011;28622;43.716;20.668;2022-07-23T15:00:50;1.40;;;1.20;;
42988;SDS011;28622;43.716;20.668;2022-07-23T15:03:17;2.15;;;1.27;;
42988;SDS011;28622;43.716;20.668;2022-07-23T15:05:43;4.90;;;1.40;;
42988;SDS011;28622;43.716;20.668;2022-07-23T15:08:08;2.05;;;1.30;;
42988;SDS011;28622;43.716;20.668;2022-07-23T15:10:34;1.35;;;1.05;;
42988;SDS011;28622;43.716;20.668;2022-07-23T15:13:00;1.45;;;1.15;;
42988;SDS011;28622;43.716;20.668;2022-07-23T15:15:26;3.25;;;1.30;;
42988;SDS011;28622;43.716;20.668;2022-07-23T15:17:52;1.10;;;1.00;;
42988;SDS011;28622;43.716;20.668;2022-07-23T15:20:18;2.75;;;1.10;;
42988;SDS011;28622;43.716;20.668;2022-07-23T15:22:43;2.05;;;1.35;;
42988;SDS011;28622;43.716;20.668;2022-07-23T15:25:10;2.85;;;1.27;;
42988;SDS011;28622;43.716;20.668;2022-07-23T15:27:36;1.67;;;1.10;;
42988;SDS011;28622;43.716;20.668;2022-07-23T15:30:03;1.55;;;1.02;;
42988;SDS011;28622;43.716;20.668;2022-07-23T15:32:29;1.95;;;1.20;;
42988;SDS011;28622;43.716;20.668;2022-07-23T15:34:55;1.75;;;1.15;;
42988;SDS011;28622;43.716;20.668;2022-07-23T15:37:21;2.78;;;1.40;;